sensor_id;sensor_type;location;lat;lon;timestamp;P1;durP1;ratioP1;P2;durP2;ratioP2
10847;SDS011;5477;48.806;9.154;2022-12-19T00:00:31;30.73;;;16.80;;
10847;SDS011;5477;48.806;9.154;2022-12-19T00:02:59;31.87;;;16.67;;
10847;SDS011;5477;48.806;9.154;2022-12-19T00:05:28;33.57;;;17.17;;
10847;SDS011;5477;48.806;9.154;2022-12-19T00:07:55;31.77;;;17.67;;
10847;SDS011;5477;48.806;9.154;2022-12-19T00:10:27;27.27;;;16.13;;
10847;SDS011;5477;48.806;9.154;2022-12-19T00:12:56;28.80;;;15.87;;
10847;SDS011;5477;48.806;9.154;2022-12-19T00:15:24;27.17;;;16.33;;
10847;SDS011;5477;48.806;9.154;2022-12-19T00:17:52;32.60;;;16.73;;
10847;SDS011;5477;48.806;9.154;2022-12-19T00:20:20;27.67;;;15.80;;
10847;SDS011;5477;48.806;9.154;2022-12-19T00:22:48;25.50;;;15.37;;
10847;SDS011;5477;48.806;9.154;2022-12-19T00:25:16;29.27;;;16.37;;
10847;SDS011;5477;48.806;9.154;2022-12-19T00:27:47;29.13;;;16.93;;
10847;SDS011;5477;48.806;9.154;2022-12-19T00:30:17;29.47;;;16.50;;
10847;SDS011;5477;48.806;9.154;2022-12-19T00:32:45;28.00;;;16.40;;
10847;SDS011;5477;48.806;9.154;2022-12-19T00:35:13;27.67;;;16.20;;
10847;SDS011;5477;48.806;9.154;2022-12-19T00:37:41;31.33;;;16.57;;
10847;SDS011;5477;48.806;9.154;2022-12-19T00:40:15;31.33;;;17.10;;
10847;SDS011;5477;48.806;9.154;2022-12-19T00:42:43;29.60;;;16.93;;
10847;SDS011;5477;48.806;9.154;2022-12-19T00:45:20;28.67;;;16.83;;
10847;SDS011;5477;48.806;9.154;2022-12-19T00:47:48;28.87;;;16.37;;
10847;SDS011;5477;48.806;9.154;2022-12-19T00:50:16;31.17;;;17.17;;
10847;SDS011;5477;48.806;9.154;2022-12-19T00:52:44;28.70;;;16.73;;
10847;SDS011;5477;48.806;9.154;2022-12-19T00:55:12;32.37;;;17.83;;
10847;SDS011;5477;48.806;9.154;2022-12-19T00:57:44;32.30;;;17.03;;
10847;SDS011;5477;48.806;9.154;2022-12-19T01:00:13;32.80;;;17.17;;
10847;SDS011;5477;48.806;9.154;2022-12-19T01:02:43;29.33;;;17.33;;
10847;SDS011;5477;48.806;9.154;2022-12-19T01:05:12;30.23;;;16.03;;
10847;SDS011;5477;48.806;9.154;2022-12-19T01:07:40;30.57;;;16.30;;
10847;SDS011;5477;48.806;9.154;2022-12-19T01:10:08;29.53;;;16.23;;
10847;SDS011;5477;48.806;9.154;2022-12-19T01:12:37;28.17;;;16.30;;
10847;SDS011;5477;48.806;9.154;2022-12-19T01:15:14;32.97;;;17.00;;
10847;SDS011;5477;48.806;9.154;2022-12-19T01:17:44;27.40;;;16.93;;
10847;SDS011;5477;48.806;9.154;2022-12-19T01:20:12;32.73;;;17.60;;
10847;SDS011;5477;48.806;9.154;2022-12-19T01:22:51;33.30;;;17.37;;
10847;SDS011;5477;48.806;9.154;2022-12-19T01:25:19;32.13;;;17.07;;
10847;SDS011;5477;48.806;9.154;2022-12-19T01:27:47;28.20;;;17.00;;
10847;SDS011;5477;48.806;9.154;2022-12-19T01:30:15;28.47;;;17.40;;
10847;SDS011;5477;48.806;9.154;2022-12-19T01:32:46;29.87;;;16.57;;
10847;SDS011;5477;48.806;9.154;2022-12-19T01:35:14;31.57;;;17.47;;
10847;SDS011;5477;48.806;9.154;2022-12-19T01:37:47;32.90;;;17.70;;
10847;SDS011;5477;48.806;9.154;2022-12-19T01:40:16;32.27;;;17.33;;
10847;SDS011;5477;48.806;9.154;2022-12-19T01:42:43;31.23;;;18.03;;
10847;SDS011;5477;48.806;9.154;2022-12-19T01:45:25;33.17;;;18.47;;
10847;SDS011;5477;48.806;9.154;2022-12-19T01:48:03;31.20;;;17.97;;
10847;SDS011;5477;48.806;9.154;2022-12-19T01:50:40;27.87;;;17.00;;
10847;SDS011;5477;48.806;9.154;2022-12-19T01:53:29;34.93;;;18.17;;
10847;SDS011;5477;48.806;9.154;2022-12-19T01:56:13;31.53;;;17.20;;
10847;SDS011;5477;48.806;9.154;2022-12-19T01:58:43;30.10;;;17.13;;
10847;SDS011;5477;48.806;9.154;2022-12-19T02:01:12;29.13;;;16.87;;
10847;SDS011;5477;48.806;9.154;2022-12-19T02:03:42;32.20;;;17.73;;
10847;SDS011;5477;48.806;9.154;2022-12-19T02:06:14;30.47;;;17.07;;
10847;SDS011;5477;48.806;9.154;2022-12-19T02:08:43;31.73;;;17.20;;
10847;SDS011;5477;48.806;9.154;2022-12-19T02:11:13;33.30;;;18.10;;
10847;SDS011;5477;48.806;9.154;2022-12-19T02:13:41;31.37;;;17.23;;
10847;SDS011;5477;48.806;9.154;2022-12-19T02:16:14;29.10;;;17.00;;
10847;SDS011;5477;48.806;9.154;2022-12-19T02:18:59;31.33;;;18.80;;
10847;SDS011;5477;48.806;9.154;2022-12-19T02:21:42;30.20;;;17.07;;
10847;SDS011;5477;48.806;9.154;2022-12-19T02:27:34;31.27;;;17.07;;
10847;SDS011;5477;48.806;9.154;2022-12-19T02:30:36;32.47;;;18.13;;
10847;SDS011;5477;48.806;9.154;2022-12-19T02:33:13;35.37;;;19.03;;
10847;SDS011;5477;48.806;9.154;2022-12-19T02:35:48;31.97;;;18.63;;
10847;SDS011;5477;48.806;9.154;2022-12-19T02:38:24;32.00;;;18.50;;
10847;SDS011;5477;48.806;9.154;2022-12-19T02:40:57;31.27;;;17.47;;
10847;SDS011;5477;48.806;9.154;2022-12-19T02:43:31;31.77;;;17.53;;
10847;SDS011;5477;48.806;9.154;2022-12-19T02:46:06;32.03;;;18.03;;
10847;SDS011;5477;48.806;9.154;2022-12-19T02:48:37;32.30;;;18.30;;
10847;SDS011;5477;48.806;9.154;2022-12-19T02:51:06;32.63;;;18.73;;
10847;SDS011;5477;48.806;9.154;2022-12-19T02:53:36;31.37;;;17.83;;
10847;SDS011;5477;48.806;9.154;2022-12-19T02:56:17;34.00;;;18.33;;
10847;SDS011;5477;48.806;9.154;2022-12-19T03:02:17;30.67;;;17.60;;
10847;SDS011;5477;48.806;9.154;2022-12-19T03:04:57;30.77;;;18.10;;
10847;SDS011;5477;48.806;9.154;2022-12-19T03:07:33;36.07;;;18.73;;
10847;SDS011;5477;48.806;9.154;2022-12-19T03:10:07;32.37;;;18.10;;
10847;SDS011;5477;48.806;9.154;2022-12-19T03:12:43;34.60;;;19.70;;
10847;SDS011;5477;48.806;9.154;2022-12-19T03:15:14;33.20;;;19.53;;
10847;SDS011;5477;48.806;9.154;2022-12-19T03:17:44;32.90;;;19.23;;
10847;SDS011;5477;48.806;9.154;2022-12-19T03:20:14;33.10;;;19.17;;
10847;SDS011;5477;48.806;9.154;2022-12-19T03:22:48;36.70;;;19.13;;
10847;SDS011;5477;48.806;9.154;2022-12-19T03:25:16;33.37;;;19.50;;
10847;SDS011;5477;48.806;9.154;2022-12-19T03:27:45;31.93;;;19.23;;
10847;SDS011;5477;48.806;9.154;2022-12-19T03:30:15;31.90;;;18.83;;
10847;SDS011;5477;48.806;9.154;2022-12-19T03:32:45;33.30;;;19.03;;
10847;SDS011;5477;48.806;9.154;2022-12-19T03:35:15;31.73;;;19.33;;
10847;SDS011;5477;48.806;9.154;2022-12-19T03:37:47;32.13;;;18.57;;
10847;SDS011;5477;48.806;9.154;2022-12-19T03:40:19;34.17;;;19.17;;
10847;SDS011;5477;48.806;9.154;2022-12-19T03:42:51;33.03;;;19.70;;
10847;SDS011;5477;48.806;9.154;2022-12-19T03:45:46;33.70;;;19.53;;
10847;SDS011;5477;48.806;9.154;2022-12-19T03:48:24;32.63;;;18.87;;
10847;SDS011;5477;48.806;9.154;2022-12-19T03:50:59;30.57;;;18.53;;
10847;SDS011;5477;48.806;9.154;2022-12-19T03:53:37;35.50;;;19.27;;
10847;SDS011;5477;48.806;9.154;2022-12-19T03:56:13;33.13;;;18.27;;
10847;SDS011;5477;48.806;9.154;2022-12-19T03:58:47;32.20;;;19.37;;
10847;SDS011;5477;48.806;9.154;2022-12-19T04:01:18;31.57;;;18.30;;
10847;SDS011;5477;48.806;9.154;2022-12-19T04:03:49;32.17;;;18.27;;
10847;SDS011;5477;48.806;9.154;2022-12-19T04:06:17;31.47;;;17.37;;
10847;SDS011;5477;48.806;9.154;2022-12-19T04:08:46;31.30;;;18.00;;
10847;SDS011;5477;48.806;9.154;2022-12-19T04:11:15;29.77;;;17.53;;
10847;SDS011;5477;48.806;9.154;2022-12-19T04:13:47;29.47;;;17.27;;
10847;SDS011;5477;48.806;9.154;2022-12-19T04:16:19;30.50;;;17.77;;
10847;SDS011;5477;48.806;9.154;2022-12-19T04:18:54;32.93;;;19.33;;
10847;SDS011;5477;48.806;9.154;2022-12-19T04:21:26;32.23;;;17.73;;
10847;SDS011;5477;48.806;9.154;2022-12-19T04:23:59;32.70;;;17.83;;
10847;SDS011;5477;48.806;9.154;2022-12-19T04:26:32;29.47;;;17.00;;
10847;SDS011;5477;48.806;9.154;2022-12-19T04:29:02;26.53;;;15.77;;
10847;SDS011;5477;48.806;9.154;2022-12-19T04:31:32;24.77;;;14.93;;
10847;SDS011;5477;48.806;9.154;2022-12-19T04:34:02;24.97;;;14.93;;
10847;SDS011;5477;48.806;9.154;2022-12-19T04:36:30;23.43;;;14.47;;
10847;SDS011;5477;48.806;9.154;2022-12-19T04:38:58;26.83;;;15.23;;
10847;SDS011;5477;48.806;9.154;2022-12-19T04:41:26;28.67;;;15.67;;
10847;SDS011;5477;48.806;9.154;2022-12-19T04:43:54;25.37;;;14.97;;
10847;SDS011;5477;48.806;9.154;2022-12-19T04:46:22;26.90;;;15.53;;
10847;SDS011;5477;48.806;9.154;2022-12-19T04:48:50;27.53;;;16.37;;
10847;SDS011;5477;48.806;9.154;2022-12-19T04:51:19;26.37;;;15.33;;
10847;SDS011;5477;48.806;9.154;2022-12-19T04:53:47;27.43;;;16.10;;
10847;SDS011;5477;48.806;9.154;2022-12-19T04:56:15;26.80;;;14.27;;
10847;SDS011;5477;48.806;9.154;2022-12-19T04:58:43;31.97;;;17.03;;
10847;SDS011;5477;48.806;9.154;2022-12-19T05:01:11;29.30;;;17.00;;
10847;SDS011;5477;48.806;9.154;2022-12-19T05:03:40;25.70;;;14.43;;
10847;SDS011;5477;48.806;9.154;2022-12-19T05:06:09;31.67;;;18.00;;
10847;SDS011;5477;48.806;9.154;2022-12-19T05:08:39;31.13;;;16.97;;
10847;SDS011;5477;48.806;9.154;2022-12-19T05:11:10;33.77;;;18.53;;
10847;SDS011;5477;48.806;9.154;2022-12-19T05:13:44;30.33;;;18.60;;
10847;SDS011;5477;48.806;9.154;2022-12-19T05:16:15;35.67;;;20.33;;
10847;SDS011;5477;48.806;9.154;2022-12-19T05:18:43;31.13;;;18.20;;
10847;SDS011;5477;48.806;9.154;2022-12-19T05:21:11;25.23;;;15.03;;
10847;SDS011;5477;48.806;9.154;2022-12-19T05:23:41;34.60;;;20.43;;
10847;SDS011;5477;48.806;9.154;2022-12-19T05:26:09;32.60;;;16.97;;
10847;SDS011;5477;48.806;9.154;2022-12-19T05:28:38;30.10;;;18.43;;
10847;SDS011;5477;48.806;9.154;2022-12-19T05:31:07;27.47;;;16.07;;
10847;SDS011;5477;48.806;9.154;2022-12-19T05:33:39;26.50;;;15.87;;
10847;SDS011;5477;48.806;9.154;2022-12-19T05:36:08;28.70;;;17.13;;
10847;SDS011;5477;48.806;9.154;2022-12-19T05:38:37;28.67;;;15.57;;
10847;SDS011;5477;48.806;9.154;2022-12-19T05:41:07;38.40;;;20.70;;
10847;SDS011;5477;48.806;9.154;2022-12-19T05:43:41;31.33;;;18.00;;
10847;SDS011;5477;48.806;9.154;2022-12-19T05:46:10;27.17;;;14.87;;
10847;SDS011;5477;48.806;9.154;2022-12-19T05:48:38;50.87;;;25.73;;
10847;SDS011;5477;48.806;9.154;2022-12-19T05:51:06;23.13;;;13.73;;
10847;SDS011;5477;48.806;9.154;2022-12-19T05:53:34;22.83;;;13.03;;
10847;SDS011;5477;48.806;9.154;2022-12-19T05:56:03;20.93;;;12.33;;
10847;SDS011;5477;48.806;9.154;2022-12-19T05:58:35;22.07;;;12.77;;
10847;SDS011;5477;48.806;9.154;2022-12-19T06:01:05;20.63;;;13.10;;
10847;SDS011;5477;48.806;9.154;2022-12-19T06:03:34;25.13;;;12.73;;
10847;SDS011;5477;48.806;9.154;2022-12-19T06:06:02;20.10;;;12.37;;
10847;SDS011;5477;48.806;9.154;2022-12-19T06:08:32;22.57;;;12.57;;
10847;SDS011;5477;48.806;9.154;2022-12-19T06:11:01;20.07;;;12.63;;
10847;SDS011;5477;48.806;9.154;2022-12-19T06:13:32;23.50;;;13.57;;
10847;SDS011;5477;48.806;9.154;2022-12-19T06:16:04;21.03;;;12.50;;
10847;SDS011;5477;48.806;9.154;2022-12-19T06:18:34;20.27;;;12.63;;
10847;SDS011;5477;48.806;9.154;2022-12-19T06:21:10;21.17;;;12.30;;
10847;SDS011;5477;48.806;9.154;2022-12-19T06:23:40;21.47;;;12.97;;
10847;SDS011;5477;48.806;9.154;2022-12-19T06:26:09;21.00;;;12.20;;
10847;SDS011;5477;48.806;9.154;2022-12-19T06:28:45;20.50;;;12.17;;
10847;SDS011;5477;48.806;9.154;2022-12-19T06:31:14;22.07;;;12.43;;
10847;SDS011;5477;48.806;9.154;2022-12-19T06:33:43;21.13;;;11.97;;
10847;SDS011;5477;48.806;9.154;2022-12-19T06:36:12;22.57;;;13.30;;
10847;SDS011;5477;48.806;9.154;2022-12-19T06:38:45;26.20;;;15.10;;
10847;SDS011;5477;48.806;9.154;2022-12-19T06:41:14;40.70;;;22.33;;
10847;SDS011;5477;48.806;9.154;2022-12-19T06:44:00;41.00;;;22.10;;
10847;SDS011;5477;48.806;9.154;2022-12-19T06:46:30;37.17;;;20.20;;
10847;SDS011;5477;48.806;9.154;2022-12-19T06:48:59;30.27;;;17.87;;
10847;SDS011;5477;48.806;9.154;2022-12-19T06:51:27;39.93;;;25.67;;
10847;SDS011;5477;48.806;9.154;2022-12-19T06:53:56;34.57;;;20.43;;
10847;SDS011;5477;48.806;9.154;2022-12-19T06:56:24;45.30;;;27.50;;
10847;SDS011;5477;48.806;9.154;2022-12-19T06:58:52;41.33;;;23.40;;
10847;SDS011;5477;48.806;9.154;2022-12-19T07:01:22;46.17;;;26.37;;
10847;SDS011;5477;48.806;9.154;2022-12-19T07:03:58;32.63;;;18.07;;
10847;SDS011;5477;48.806;9.154;2022-12-19T07:06:27;35.90;;;20.40;;
10847;SDS011;5477;48.806;9.154;2022-12-19T07:08:54;37.03;;;20.93;;
10847;SDS011;5477;48.806;9.154;2022-12-19T07:11:23;47.00;;;28.80;;
10847;SDS011;5477;48.806;9.154;2022-12-19T07:13:50;43.50;;;25.20;;
10847;SDS011;5477;48.806;9.154;2022-12-19T07:16:18;43.10;;;23.80;;
10847;SDS011;5477;48.806;9.154;2022-12-19T07:18:46;50.20;;;25.93;;
10847;SDS011;5477;48.806;9.154;2022-12-19T07:21:16;36.37;;;20.37;;
10847;SDS011;5477;48.806;9.154;2022-12-19T07:23:44;30.23;;;18.20;;
10847;SDS011;5477;48.806;9.154;2022-12-19T07:26:12;36.47;;;22.17;;
10847;SDS011;5477;48.806;9.154;2022-12-19T07:28:40;39.17;;;22.40;;
10847;SDS011;5477;48.806;9.154;2022-12-19T07:31:09;48.73;;;26.80;;
10847;SDS011;5477;48.806;9.154;2022-12-19T07:33:38;38.03;;;22.80;;
10847;SDS011;5477;48.806;9.154;2022-12-19T07:36:09;41.37;;;22.43;;
10847;SDS011;5477;48.806;9.154;2022-12-19T07:38:38;35.10;;;19.00;;
10847;SDS011;5477;48.806;9.154;2022-12-19T07:41:06;28.10;;;16.47;;
10847;SDS011;5477;48.806;9.154;2022-12-19T07:43:34;28.57;;;16.67;;
10847;SDS011;5477;48.806;9.154;2022-12-19T07:46:02;31.73;;;15.90;;
10847;SDS011;5477;48.806;9.154;2022-12-19T07:48:30;29.00;;;16.60;;
10847;SDS011;5477;48.806;9.154;2022-12-19T07:50:58;31.53;;;17.83;;
10847;SDS011;5477;48.806;9.154;2022-12-19T07:53:28;31.90;;;18.97;;
10847;SDS011;5477;48.806;9.154;2022-12-19T07:55:58;32.10;;;18.60;;
10847;SDS011;5477;48.806;9.154;2022-12-19T07:58:26;35.40;;;21.50;;
10847;SDS011;5477;48.806;9.154;2022-12-19T08:00:54;33.30;;;19.93;;
10847;SDS011;5477;48.806;9.154;2022-12-19T08:03:23;26.77;;;16.23;;
10847;SDS011;5477;48.806;9.154;2022-12-19T08:05:58;31.43;;;17.97;;
10847;SDS011;5477;48.806;9.154;2022-12-19T08:08:27;26.87;;;16.10;;
10847;SDS011;5477;48.806;9.154;2022-12-19T08:10:55;28.73;;;16.20;;
10847;SDS011;5477;48.806;9.154;2022-12-19T08:13:35;30.27;;;17.40;;
10847;SDS011;5477;48.806;9.154;2022-12-19T08:16:11;30.03;;;16.77;;
10847;SDS011;5477;48.806;9.154;2022-12-19T08:18:39;29.27;;;16.93;;
10847;SDS011;5477;48.806;9.154;2022-12-19T08:21:07;30.20;;;16.53;;
10847;SDS011;5477;48.806;9.154;2022-12-19T08:23:36;31.27;;;16.57;;
10847;SDS011;5477;48.806;9.154;2022-12-19T08:26:05;31.50;;;17.37;;
10847;SDS011;5477;48.806;9.154;2022-12-19T08:28:36;30.27;;;17.37;;
10847;SDS011;5477;48.806;9.154;2022-12-19T08:31:04;32.43;;;17.53;;
10847;SDS011;5477;48.806;9.154;2022-12-19T08:33:34;39.13;;;22.07;;
10847;SDS011;5477;48.806;9.154;2022-12-19T08:36:02;32.40;;;18.40;;
10847;SDS011;5477;48.806;9.154;2022-12-19T08:38:31;29.87;;;16.13;;
10847;SDS011;5477;48.806;9.154;2022-12-19T08:40:59;31.80;;;17.70;;
10847;SDS011;5477;48.806;9.154;2022-12-19T08:43:27;26.23;;;16.90;;
10847;SDS011;5477;48.806;9.154;2022-12-19T08:45:57;31.77;;;16.90;;
10847;SDS011;5477;48.806;9.154;2022-12-19T08:48:25;29.13;;;15.60;;
10847;SDS011;5477;48.806;9.154;2022-12-19T08:50:54;28.73;;;16.87;;
10847;SDS011;5477;48.806;9.154;2022-12-19T08:53:25;28.57;;;16.10;;
10847;SDS011;5477;48.806;9.154;2022-12-19T08:55:54;28.20;;;15.77;;
10847;SDS011;5477;48.806;9.154;2022-12-19T08:58:23;34.93;;;21.83;;
10847;SDS011;5477;48.806;9.154;2022-12-19T09:00:51;40.27;;;26.43;;
10847;SDS011;5477;48.806;9.154;2022-12-19T09:03:31;32.87;;;22.07;;
10847;SDS011;5477;48.806;9.154;2022-12-19T09:06:19;35.10;;;20.20;;
10847;SDS011;5477;48.806;9.154;2022-12-19T09:08:47;31.30;;;17.90;;
10847;SDS011;5477;48.806;9.154;2022-12-19T09:11:17;32.47;;;18.73;;
10847;SDS011;5477;48.806;9.154;2022-12-19T09:13:46;38.23;;;20.00;;
10847;SDS011;5477;48.806;9.154;2022-12-19T09:16:16;36.17;;;18.83;;
10847;SDS011;5477;48.806;9.154;2022-12-19T09:18:48;33.43;;;18.57;;
10847;SDS011;5477;48.806;9.154;2022-12-19T09:21:17;33.83;;;17.47;;
10847;SDS011;5477;48.806;9.154;2022-12-19T09:23:46;32.93;;;18.00;;
10847;SDS011;5477;48.806;9.154;2022-12-19T09:26:15;32.63;;;17.30;;
10847;SDS011;5477;48.806;9.154;2022-12-19T09:28:44;30.13;;;16.90;;
10847;SDS011;5477;48.806;9.154;2022-12-19T09:31:14;32.57;;;16.83;;
10847;SDS011;5477;48.806;9.154;2022-12-19T09:33:43;30.20;;;17.73;;
10847;SDS011;5477;48.806;9.154;2022-12-19T09:36:14;29.43;;;16.77;;
10847;SDS011;5477;48.806;9.154;2022-12-19T09:38:43;32.83;;;18.30;;
10847;SDS011;5477;48.806;9.154;2022-12-19T09:41:29;30.37;;;17.53;;
10847;SDS011;5477;48.806;9.154;2022-12-19T09:44:10;31.70;;;16.67;;
10847;SDS011;5477;48.806;9.154;2022-12-19T09:46:51;32.60;;;16.77;;
10847;SDS011;5477;48.806;9.154;2022-12-19T09:49:25;29.63;;;17.00;;
10847;SDS011;5477;48.806;9.154;2022-12-19T09:51:58;34.00;;;16.80;;
10847;SDS011;5477;48.806;9.154;2022-12-19T09:54:31;29.70;;;16.07;;
10847;SDS011;5477;48.806;9.154;2022-12-19T09:57:03;30.50;;;17.00;;
10847;SDS011;5477;48.806;9.154;2022-12-19T09:59:38;26.97;;;16.53;;
10847;SDS011;5477;48.806;9.154;2022-12-19T10:05:08;29.63;;;15.10;;
10847;SDS011;5477;48.806;9.154;2022-12-19T10:08:02;30.47;;;16.37;;
10847;SDS011;5477;48.806;9.154;2022-12-19T10:10:43;26.93;;;16.47;;
10847;SDS011;5477;48.806;9.154;2022-12-19T10:13:48;27.80;;;16.27;;
10847;SDS011;5477;48.806;9.154;2022-12-19T10:16:31;24.23;;;15.27;;
10847;SDS011;5477;48.806;9.154;2022-12-19T10:19:04;28.70;;;17.47;;
10847;SDS011;5477;48.806;9.154;2022-12-19T10:21:35;26.20;;;16.67;;
10847;SDS011;5477;48.806;9.154;2022-12-19T10:24:47;27.83;;;15.87;;
10847;SDS011;5477;48.806;9.154;2022-12-19T10:27:36;28.57;;;15.90;;
10847;SDS011;5477;48.806;9.154;2022-12-19T10:30:25;25.87;;;15.83;;
10847;SDS011;5477;48.806;9.154;2022-12-19T10:33:00;24.80;;;14.93;;
10847;SDS011;5477;48.806;9.154;2022-12-19T10:35:44;24.57;;;15.77;;
10847;SDS011;5477;48.806;9.154;2022-12-19T10:38:17;25.20;;;15.77;;
10847;SDS011;5477;48.806;9.154;2022-12-19T10:40:52;27.50;;;16.37;;
10847;SDS011;5477;48.806;9.154;2022-12-19T10:43:33;26.90;;;16.70;;
10847;SDS011;5477;48.806;9.154;2022-12-19T10:46:12;30.37;;;16.47;;
10847;SDS011;5477;48.806;9.154;2022-12-19T10:48:44;27.20;;;16.40;;
10847;SDS011;5477;48.806;9.154;2022-12-19T10:51:12;27.53;;;16.03;;
10847;SDS011;5477;48.806;9.154;2022-12-19T10:53:51;31.00;;;16.77;;
10847;SDS011;5477;48.806;9.154;2022-12-19T10:56:24;30.03;;;17.90;;
10847;SDS011;5477;48.806;9.154;2022-12-19T10:59:02;27.93;;;17.23;;
10847;SDS011;5477;48.806;9.154;2022-12-19T11:01:41;28.73;;;18.33;;
10847;SDS011;5477;48.806;9.154;2022-12-19T11:04:20;37.93;;;22.13;;
10847;SDS011;5477;48.806;9.154;2022-12-19T11:07:04;40.27;;;26.63;;
10847;SDS011;5477;48.806;9.154;2022-12-19T11:09:43;39.23;;;24.87;;
10847;SDS011;5477;48.806;9.154;2022-12-19T11:12:32;30.53;;;18.80;;
10847;SDS011;5477;48.806;9.154;2022-12-19T11:15:20;14.97;;;11.10;;
10847;SDS011;5477;48.806;9.154;2022-12-19T11:18:10;14.37;;;9.83;;
10847;SDS011;5477;48.806;9.154;2022-12-19T11:21:00;15.97;;;10.00;;
10847;SDS011;5477;48.806;9.154;2022-12-19T11:23:50;12.73;;;8.80;;
10847;SDS011;5477;48.806;9.154;2022-12-19T11:26:41;12.80;;;8.97;;
10847;SDS011;5477;48.806;9.154;2022-12-19T11:29:43;15.50;;;9.13;;
10847;SDS011;5477;48.806;9.154;2022-12-19T11:32:33;12.33;;;8.17;;
10847;SDS011;5477;48.806;9.154;2022-12-19T11:35:14;13.60;;;9.07;;
10847;SDS011;5477;48.806;9.154;2022-12-19T11:37:50;13.17;;;8.57;;
10847;SDS011;5477;48.806;9.154;2022-12-19T11:40:23;11.43;;;8.57;;
10847;SDS011;5477;48.806;9.154;2022-12-19T11:43:00;11.57;;;7.67;;
10847;SDS011;5477;48.806;9.154;2022-12-19T11:45:56;10.83;;;7.73;;
10847;SDS011;5477;48.806;9.154;2022-12-19T11:48:31;13.33;;;7.80;;
10847;SDS011;5477;48.806;9.154;2022-12-19T11:51:05;13.80;;;8.37;;
10847;SDS011;5477;48.806;9.154;2022-12-19T11:53:43;13.10;;;8.47;;
10847;SDS011;5477;48.806;9.154;2022-12-19T11:56:16;10.63;;;8.23;;
10847;SDS011;5477;48.806;9.154;2022-12-19T11:58:47;13.47;;;8.97;;
10847;SDS011;5477;48.806;9.154;2022-12-19T12:01:21;20.60;;;14.10;;
10847;SDS011;5477;48.806;9.154;2022-12-19T12:04:00;26.33;;;19.17;;
10847;SDS011;5477;48.806;9.154;2022-12-19T12:06:45;24.03;;;16.00;;
10847;SDS011;5477;48.806;9.154;2022-12-19T12:09:18;24.30;;;16.20;;
10847;SDS011;5477;48.806;9.154;2022-12-19T12:12:16;23.90;;;14.40;;
10847;SDS011;5477;48.806;9.154;2022-12-19T12:15:14;14.37;;;9.13;;
10847;SDS011;5477;48.806;9.154;2022-12-19T12:18:19;11.40;;;8.27;;
10847;SDS011;5477;48.806;9.154;2022-12-19T12:21:18;12.40;;;7.73;;
10847;SDS011;5477;48.806;9.154;2022-12-19T12:24:11;11.83;;;7.90;;
10847;SDS011;5477;48.806;9.154;2022-12-19T12:27:16;11.03;;;7.50;;
10847;SDS011;5477;48.806;9.154;2022-12-19T12:30:17;11.07;;;7.53;;
10847;SDS011;5477;48.806;9.154;2022-12-19T12:33:14;11.10;;;7.00;;
10847;SDS011;5477;48.806;9.154;2022-12-19T12:36:13;12.23;;;8.57;;
10847;SDS011;5477;48.806;9.154;2022-12-19T12:39:10;19.23;;;11.80;;
10847;SDS011;5477;48.806;9.154;2022-12-19T12:41:55;22.23;;;13.87;;
10847;SDS011;5477;48.806;9.154;2022-12-19T12:44:33;20.83;;;14.17;;
10847;SDS011;5477;48.806;9.154;2022-12-19T12:47:11;22.33;;;15.10;;
10847;SDS011;5477;48.806;9.154;2022-12-19T12:49:45;25.33;;;15.60;;
10847;SDS011;5477;48.806;9.154;2022-12-19T12:52:17;23.60;;;15.33;;
10847;SDS011;5477;48.806;9.154;2022-12-19T12:54:47;23.20;;;15.40;;
10847;SDS011;5477;48.806;9.154;2022-12-19T12:57:17;26.07;;;15.87;;
10847;SDS011;5477;48.806;9.154;2022-12-19T13:00:21;23.40;;;15.20;;
10847;SDS011;5477;48.806;9.154;2022-12-19T13:02:54;23.67;;;15.43;;
10847;SDS011;5477;48.806;9.154;2022-12-19T13:05:31;21.00;;;14.37;;
10847;SDS011;5477;48.806;9.154;2022-12-19T13:08:24;18.57;;;11.43;;
10847;SDS011;5477;48.806;9.154;2022-12-19T13:10:57;15.10;;;10.27;;
10847;SDS011;5477;48.806;9.154;2022-12-19T13:13:47;11.97;;;9.17;;
10847;SDS011;5477;48.806;9.154;2022-12-19T13:19:20;10.60;;;7.47;;
10847;SDS011;5477;48.806;9.154;2022-12-19T13:28:14;11.73;;;7.93;;
10847;SDS011;5477;48.806;9.154;2022-12-19T13:36:49;11.00;;;7.13;;
10847;SDS011;5477;48.806;9.154;2022-12-19T13:39:41;12.00;;;8.10;;
10847;SDS011;5477;48.806;9.154;2022-12-19T13:42:46;26.07;;;15.70;;
10847;SDS011;5477;48.806;9.154;2022-12-19T13:45:39;14.17;;;8.77;;
10847;SDS011;5477;48.806;9.154;2022-12-19T13:48:23;9.77;;;6.43;;
10847;SDS011;5477;48.806;9.154;2022-12-19T13:50:55;10.80;;;7.10;;
10847;SDS011;5477;48.806;9.154;2022-12-19T13:53:27;11.80;;;7.50;;
10847;SDS011;5477;48.806;9.154;2022-12-19T13:55:59;9.93;;;6.40;;
10847;SDS011;5477;48.806;9.154;2022-12-19T13:58:29;14.23;;;8.40;;
10847;SDS011;5477;48.806;9.154;2022-12-19T14:01:00;11.80;;;7.47;;
10847;SDS011;5477;48.806;9.154;2022-12-19T14:03:31;12.30;;;8.53;;
10847;SDS011;5477;48.806;9.154;2022-12-19T14:06:06;17.97;;;10.63;;
10847;SDS011;5477;48.806;9.154;2022-12-19T14:08:44;13.73;;;7.43;;
10847;SDS011;5477;48.806;9.154;2022-12-19T14:11:42;9.00;;;5.30;;
10847;SDS011;5477;48.806;9.154;2022-12-19T14:14:31;11.57;;;8.27;;
10847;SDS011;5477;48.806;9.154;2022-12-19T14:17:37;16.50;;;9.70;;
10847;SDS011;5477;48.806;9.154;2022-12-19T14:20:08;11.07;;;6.33;;
10847;SDS011;5477;48.806;9.154;2022-12-19T14:23:08;7.13;;;5.13;;
10847;SDS011;5477;48.806;9.154;2022-12-19T14:25:37;14.33;;;7.80;;
10847;SDS011;5477;48.806;9.154;2022-12-19T14:28:34;9.27;;;5.50;;
10847;SDS011;5477;48.806;9.154;2022-12-19T14:31:06;13.90;;;8.00;;
10847;SDS011;5477;48.806;9.154;2022-12-19T14:33:39;9.27;;;5.53;;
10847;SDS011;5477;48.806;9.154;2022-12-19T14:36:30;13.07;;;7.53;;
10847;SDS011;5477;48.806;9.154;2022-12-19T14:38:59;11.07;;;5.83;;
10847;SDS011;5477;48.806;9.154;2022-12-19T14:41:48;9.33;;;6.37;;
10847;SDS011;5477;48.806;9.154;2022-12-19T14:44:45;7.90;;;5.83;;
10847;SDS011;5477;48.806;9.154;2022-12-19T14:47:36;10.00;;;5.87;;
10847;SDS011;5477;48.806;9.154;2022-12-19T14:50:26;10.67;;;6.77;;
10847;SDS011;5477;48.806;9.154;2022-12-19T14:53:17;18.37;;;8.93;;
10847;SDS011;5477;48.806;9.154;2022-12-19T14:56:07;15.03;;;8.10;;
10847;SDS011;5477;48.806;9.154;2022-12-19T14:58:57;11.63;;;6.90;;
10847;SDS011;5477;48.806;9.154;2022-12-19T15:01:28;16.87;;;9.50;;
10847;SDS011;5477;48.806;9.154;2022-12-19T15:03:59;9.50;;;6.60;;
10847;SDS011;5477;48.806;9.154;2022-12-19T15:06:50;8.67;;;5.83;;
10847;SDS011;5477;48.806;9.154;2022-12-19T15:09:41;9.53;;;6.20;;
10847;SDS011;5477;48.806;9.154;2022-12-19T15:12:46;8.57;;;5.53;;
10847;SDS011;5477;48.806;9.154;2022-12-19T15:16:05;9.17;;;6.37;;
10847;SDS011;5477;48.806;9.154;2022-12-19T15:18:50;10.63;;;6.93;;
10847;SDS011;5477;48.806;9.154;2022-12-19T15:21:20;11.83;;;7.10;;
10847;SDS011;5477;48.806;9.154;2022-12-19T15:23:48;8.77;;;6.37;;
10847;SDS011;5477;48.806;9.154;2022-12-19T15:26:16;9.43;;;6.73;;
10847;SDS011;5477;48.806;9.154;2022-12-19T15:28:46;9.33;;;6.60;;
10847;SDS011;5477;48.806;9.154;2022-12-19T15:31:20;8.83;;;6.70;;
10847;SDS011;5477;48.806;9.154;2022-12-19T15:33:55;8.60;;;6.37;;
10847;SDS011;5477;48.806;9.154;2022-12-19T15:36:43;10.77;;;6.87;;
10847;SDS011;5477;48.806;9.154;2022-12-19T15:39:11;10.17;;;6.13;;
10847;SDS011;5477;48.806;9.154;2022-12-19T15:41:40;9.93;;;6.67;;
10847;SDS011;5477;48.806;9.154;2022-12-19T15:44:12;9.20;;;6.60;;
10847;SDS011;5477;48.806;9.154;2022-12-19T15:46:51;10.93;;;6.87;;
10847;SDS011;5477;48.806;9.154;2022-12-19T15:49:23;10.73;;;6.80;;